Flight Track Log - Related Links

Times and Time Zones

All times are in EDT time to prevent confusion due to time zone crossing. See the OPT732 flight status page for this flight to view local times or setup timezone preferences in your user account.

Time Position Orientation Groundspeed Altitude Reporting Facility
EDT Latitude Longitude Course Direction KTS MPH feet Rate Location/Type
Thu 07:54:30 AM 40.9167 -74.0500 237° Southwest 211 243 2,000  Level New York TRACON
Thu 07:55:30 AM 40.9167 -74.1167 270° West 214 246 3,800 1,950 Climbing New York TRACON
Thu 07:56:30 AM 40.9000 -74.2167 258° West 271 312 5,900 1,956 Climbing New York TRACON
Thu 07:58:31 AM 40.8700 -74.4153 259° West 286 329 9,700 2,033 Climbing New York Center
Thu 07:59:00 AM 40.6293 -74.7747 237° Southwest  Level FlightAware Approximate
Thu 07:59:30 AM 40.8589 -74.5050 261° West 292 336 12,000  Level New York Center
Thu 08:00:30 AM 40.8931 -74.6058 294° West 271 312 12,000  Level New York Center
Thu 08:01:28 AM 40.8431 -74.6717 225° Southwest 246 283 12,000 1,350 Level New York Center
Thu 08:02:30 AM 40.7731 -74.7664 226° Southwest 315 362 14,700 2,537 Climbing New York Center
Thu 08:03:31 AM 40.7103 -74.8419 222° Southwest 342 394 17,200 2,672 Climbing New York Center
Thu 08:04:29 AM 40.6317 -74.9411 224° Southwest 352 405 20,000 2,773 Climbing New York Center
Thu 08:05:30 AM 40.5553 -75.0350 223° Southwest 363 418 22,700 2,678 Climbing New York Center
Thu 08:06:30 AM 40.4869 -75.1425 230° Southwest 374 430 25,400 2,723 Climbing New York Center
Thu 08:07:29 AM 40.4158 -75.2581 231° Southwest 399 459 28,100 2,600 Climbing New York Center
Thu 08:08:30 AM 40.3425 -75.3758 231° Southwest 412 474 30,600 2,331 Climbing New York Center
Thu 08:09:30 AM 40.2647 -75.4958 230° Southwest 417 480 32,800 1,835 Climbing New York Center
Thu 08:10:31 AM 40.1847 -75.6206 230° Southwest 440 506 34,300 1,576 Climbing New York Center
Thu 08:11:28 AM 40.0903 -75.7336 222° Southwest 448 516 35,900 1,563 Climbing New York Center
Thu 08:12:30 AM 39.9958 -75.8489 223° Southwest 463 533 37,400 1,449 Climbing New York Center
Thu 08:14:55 AM 39.7728 -76.1181 223° Southwest 462 532 40,900 1,300 Climbing Washington Center
Thu 08:15:53 AM 39.6869 -76.2172 222° Southwest 457 526 41,800 756 Climbing Washington Center
Thu 08:16:54 AM 39.5947 -76.3294 223° Southwest 457 526 42,400 590 Climbing Washington Center
Thu 08:17:55 AM 39.5003 -76.4414 222° Southwest 457 526 43,000 298 Climbing Washington Center
Thu 08:18:55 AM 39.4014 -76.5531 221° Southwest 462 532 43,000  Level Washington Center
Thu 08:19:53 AM 39.3089 -76.6619 222° Southwest 462 532 43,000  Level Washington Center
Thu 08:20:54 AM 39.2033 -76.7861 222° Southwest 462 532 43,000  Level Washington Center
Thu 08:21:55 AM 39.1233 -76.8811 223° Southwest 462 532 43,000  Level Washington Center
Thu 08:22:55 AM 39.0303 -76.9892 222° Southwest 457 526 43,000  Level Washington Center
Thu 08:23:55 AM 38.9394 -77.0942 222° Southwest 452 520 43,000  Level Washington Center
Thu 08:24:53 AM 38.8483 -77.2017 223° Southwest 447 514 43,000  Level Washington Center
Thu 08:25:54 AM 38.7553 -77.3086 222° Southwest 447 514 43,000  Level Washington Center
Thu 08:26:53 AM 38.6642 -77.4131 222° Southwest 447 514 43,000  Level Washington Center
Thu 08:27:53 AM 38.5642 -77.5300 222° Southwest 447 514 43,000  Level Washington Center
Thu 08:28:53 AM 38.4708 -77.6361 222° Southwest 447 514 43,000  Level Washington Center
Thu 08:29:54 AM 38.3772 -77.7422 222° Southwest 447 514 43,000  Level Washington Center
Thu 08:30:55 AM 38.2856 -77.8481 222° Southwest 447 514 43,000  Level Washington Center
Thu 08:31:54 AM 38.1897 -77.9561 222° Southwest 452 520 43,000  Level Washington Center
Thu 08:32:54 AM 38.0936 -78.0639 221° Southwest 452 520 43,000  Level Washington Center
Thu 08:33:55 AM 37.9997 -78.1636 220° Southwest 452 520 43,000  Level Washington Center
Thu 08:34:54 AM 37.9144 -78.2528 220° Southwest 452 520 43,000  Level Washington Center
Thu 08:35:55 AM 37.8078 -78.3517 216° Southwest 457 526 43,000  Level Washington Center
Thu 08:36:53 AM 37.7075 -78.4478 217° Southwest 463 533 43,000  Level Washington Center
Thu 08:37:55 AM 37.6031 -78.5461 217° Southwest 468 539 43,000  Level Washington Center
Thu 08:38:53 AM 37.4878 -78.6514 216° Southwest 468 539 43,000  Level Washington Center
Thu 08:39:54 AM 37.3850 -78.7492 217° Southwest 468 539 43,000  Level Washington Center
Thu 08:40:55 AM 37.2803 -78.8467 217° Southwest 468 539 43,000  Level Washington Center
Thu 08:41:52 AM 37.1775 -78.9414 216° Southwest 468 539 43,000  Level Washington Center
Thu 08:42:53 AM 37.0725 -79.0383 216° Southwest 468 539 43,000  Level Washington Center
Thu 08:43:53 AM 36.9781 -79.1253 216° Southwest 468 539 43,000  Level Washington Center
Thu 08:44:55 AM 36.8753 -79.2192 216° Southwest 468 539 43,000  Level Washington Center
Thu 08:45:53 AM 36.7700 -79.3181 217° Southwest 468 539 43,000  Level Washington Center
Thu 08:46:54 AM 36.6625 -79.4139 216° Southwest 468 539 43,000  Level Washington Center
Thu 08:49:45 AM 36.3586 -79.6894 216° Southwest 469 540 43,000  Level Atlanta Center
Thu 08:50:46 AM 36.2536 -79.7853 216° Southwest 474 545 43,000  Level Atlanta Center
Thu 08:51:46 AM 36.1464 -79.8811 216° Southwest 485 558 43,000  Level Atlanta Center
Thu 08:52:46 AM 36.0267 -79.9794 214° Southwest 478 550 43,000  Level Atlanta Center
Thu 08:53:46 AM 35.9056 -80.0419 203° Southwest 471 542 43,000  Level Atlanta Center
Thu 08:54:46 AM 35.7825 -80.1044 202° Southwest 501 577 43,000  Level Atlanta Center
Thu 08:55:46 AM 35.6839 -80.1550 203° Southwest 501 577 43,000  Level Atlanta Center
Thu 08:56:46 AM 35.5483 -80.2228 202° Southwest 487 560 43,000  Level Atlanta Center
Thu 08:57:46 AM 35.4272 -80.2869 203° Southwest 487 560 43,000  Level Atlanta Center
Thu 08:58:46 AM 35.3039 -80.3461 201° Southwest 480 552 43,000  Level Atlanta Center
Thu 09:00:38 AM 35.0750 -80.4578 202° Southwest 469 540 43,000  Level Jacksonville Center
Thu 09:01:38 AM 34.9531 -80.5219 203° Southwest 469 540 43,000  Level Jacksonville Center
Thu 09:02:38 AM 34.8167 -80.5864 201° Southwest 469 540 43,000  Level Jacksonville Center
Thu 09:03:38 AM 34.6969 -80.6478 203° Southwest 469 540 43,000  Level Jacksonville Center
Thu 09:04:38 AM 34.5686 -80.7064 201° Southwest 481 554 43,000  Level Jacksonville Center
Thu 09:05:38 AM 34.4444 -80.7650 201° Southwest 488 562 43,000  Level Jacksonville Center
Thu 09:06:38 AM 34.3142 -80.8336 204° Southwest 487 560 43,000  Level Jacksonville Center
Thu 09:07:38 AM 34.1981 -80.8842 200° South 480 552 43,000  Level Jacksonville Center
Thu 09:08:38 AM 34.0717 -80.9447 202° Southwest 475 547 43,000  Level Jacksonville Center
Thu 09:09:38 AM 33.9494 -81.0025 201° Southwest 475 547 43,000  Level Jacksonville Center
Thu 09:10:38 AM 33.8231 -81.0603 201° Southwest 481 554 43,000  Level Jacksonville Center
Thu 09:11:38 AM 33.6967 -81.1178 201° Southwest 486 559 43,000  Level Jacksonville Center
Thu 09:12:38 AM 33.5722 -81.1750 201° Southwest 491 565 43,000  Level Jacksonville Center
Thu 09:13:38 AM 33.4458 -81.2347 202° Southwest 491 565 43,000  Level Jacksonville Center
Thu 09:14:38 AM 33.3253 -81.2892 201° Southwest 491 565 43,000  Level Jacksonville Center
Thu 09:15:38 AM 33.2031 -81.3458 201° Southwest 486 559 43,000  Level Jacksonville Center
Thu 09:16:38 AM 33.0783 -81.4028 201° Southwest 486 559 43,000  Level Jacksonville Center
Thu 09:17:38 AM 32.9558 -81.4617 202° Southwest 486 559 43,000  Level Jacksonville Center
Thu 09:18:38 AM 32.8333 -81.5181 201° Southwest 481 554 43,000  Level Jacksonville Center
Thu 09:19:38 AM 32.7128 -81.5692 200° South 476 548 43,000  Level Jacksonville Center
Thu 09:20:38 AM 32.5925 -81.6325 204° Southwest 465 535 43,000  Level Jacksonville Center
Thu 09:21:38 AM 32.4822 -81.6833 201° Southwest 475 547 43,000  Level Jacksonville Center
Thu 09:22:38 AM 32.3472 -81.7417 200° South 475 547 43,000  Level Jacksonville Center
Thu 09:23:38 AM 32.2347 -81.7922 201° Southwest 475 547 43,000  Level Jacksonville Center
Thu 09:24:38 AM 32.0975 -81.8308 193° South 470 541 43,000  Level Jacksonville Center
Thu 09:25:38 AM 31.9639 -81.8567 189° South 475 547 43,000  Level Jacksonville Center
Thu 09:26:38 AM 31.8450 -81.8775 188° South 481 554 43,000  Level Jacksonville Center
Thu 09:27:38 AM 31.7014 -81.9061 190° South 481 554 43,000  Level Jacksonville Center
Thu 09:28:38 AM 31.5825 -81.9269 188° South 486 559 43,000  Level Jacksonville Center
Thu 09:29:38 AM 31.4386 -81.9528 189° South 481 554 43,000  Level Jacksonville Center
Thu 09:30:38 AM 31.3072 -81.9831 191° South 481 554 43,000  Level Jacksonville Center
Thu 09:31:38 AM 31.1758 -82.0039 188° South 481 554 43,000 -350 Level Jacksonville Center
Thu 09:32:38 AM 31.0444 -82.0294 189° South 481 554 42,300 -1,100 Descending Jacksonville Center
Thu 09:33:38 AM 30.9069 -82.0547 189° South 486 559 40,800 -1,500 Descending Jacksonville Center
Thu 09:34:38 AM 30.7631 -82.0803 189° South 500 575 39,300 -1,350 Descending Jacksonville Center
Thu 09:35:38 AM 30.6233 -82.1056 189° South 513 590 38,100 -800 Descending Jacksonville Center
Thu 09:36:38 AM 30.4981 -82.1236 187° South 513 590 37,700 -1,000 Descending Jacksonville Center
Thu 09:37:38 AM 30.3519 -82.1511 189° South 520 598 36,100 -1,300 Descending Jacksonville Center
Thu 09:38:38 AM 30.2103 -82.1764 189° South 525 604 35,100 -1,500 Descending Jacksonville Center
Thu 09:39:38 AM 30.0706 -82.2014 189° South 520 598 33,100 -2,050 Descending Jacksonville Center
Thu 09:40:38 AM 29.9328 -82.2214 187° South 515 593 31,000 -1,850 Descending Jacksonville Center
Thu 09:41:38 AM 29.8011 -82.2128 177° South 494 568 29,400 -1,550 Descending Jacksonville Center
Thu 09:42:38 AM 29.6717 -82.1969 174° South 483 556 27,900 -1,500 Descending Jacksonville Center
Thu 09:43:38 AM 29.5422 -82.1883 177° South 472 543 26,400 -1,450 Descending Jacksonville Center
Thu 09:44:38 AM 29.4189 -82.1772 176° South 462 532 25,000 -800 Descending Jacksonville Center
Thu 09:45:38 AM 29.2978 -82.1664 176° South 450 518 24,800 -1,300 Descending Jacksonville Center
Thu 09:46:38 AM 29.1664 -82.1553 176° South 450 518 22,400 -2,450 Descending Jacksonville Center
Thu 09:47:38 AM 29.0411 -82.1444 176° South 456 525 19,900 -2,400 Descending Jacksonville Center
Thu 09:48:38 AM 28.9158 -82.1383 178° South 458 527 17,600 -2,284 Descending Jacksonville Center
Thu 09:50:13 AM 28.7333 -82.1167 174° South 379 436 14,000 -2,000 Descending Tampa TRACON
Thu 09:51:08 AM 28.6500 -82.1167 180° South 358 412 12,600 -1,043 Descending Tampa TRACON
Thu 09:52:08 AM 28.5500 -82.1000 172° South 354 407 12,000 -300 Descending Tampa TRACON
Thu 09:53:08 AM 28.4500 -82.0833 172° South 358 412 12,000  Level Tampa TRACON
Thu 09:54:08 AM 28.3500 -82.0667 172° South 364 419 12,000 -238 Level Tampa TRACON
Thu 09:55:14 AM 28.2333 -82.0500 173° South 362 417 11,500 -750 Descending Tampa TRACON
Thu 09:56:08 AM 28.1500 -82.0333 170° South 351 404 10,500 -1,053 Descending Tampa TRACON
Thu 09:57:08 AM 28.0667 -82.0500 190° South 289 333 9,500 -1,000 Descending Tampa TRACON
Thu 09:58:08 AM 28.0000 -82.1000 214° Southwest 269 310 8,500 -714 Descending Tampa TRACON
Thu 09:59:14 AM 27.9333 -82.1333 204° Southwest 268 308 8,000 -667 Descending Tampa TRACON
Thu 10:00:14 AM 27.8667 -82.1667 204° Southwest 263 303 7,100 -947 Descending Tampa TRACON
Thu 10:01:08 AM 27.8000 -82.2167 214° Southwest 262 302 6,200 -579 Descending Tampa TRACON
Thu 10:02:08 AM 27.7500 -82.2500 211° Southwest 237 273 6,000 -100 Descending Tampa TRACON
Thu 10:03:08 AM 27.7000 -82.3000 222° Southwest 233 268 6,000  Level Tampa TRACON
Thu 10:04:09 AM 27.6667 -82.3667 241° Southwest 223 257 6,000  Level Tampa TRACON
Thu 10:05:09 AM 27.6500 -82.4333 254° West 228 262 6,000 -650 Level Tampa TRACON
Thu 10:06:09 AM 27.6167 -82.5000 241° Southwest 243 280 4,700 -1,296 Descending Tampa TRACON
Thu 10:07:14 AM 27.5667 -82.5667 230° Southwest 268 308 3,300 -1,104 Descending Tampa TRACON
Thu 10:08:14 AM 27.5167 -82.6167 222° Southwest 241 277 2,400 -694 Descending Tampa TRACON
Thu 10:09:15 AM 27.4500 -82.6167 180° South 205 236 1,900 -942 Descending Tampa TRACON
Thu 10:10:15 AM 27.4167 -82.5833 138° Southeast 164 189 500 -1,400 Descending Tampa TRACON
Thu 10:12:00 AM 27.3954 -82.5544 160° South  Level Estimated
Thu 10:19:00 AM 27.3954 -82.5544 160° South  Level Estimated

Login

Don't have an account? Register now (free) for customized features, flight alerts, and more!